Leadville, CO

8:55 PM MDT on August 20, 2014 (GMT -0600)
Aspen-Pitkin County / Sardy Field | Change Station
CLOSE
Current Station
Airport
Location: Aspen,
Elevation: 7822 ft
Nearby Weather Stations

Elev 7822 ft 39.23 °N, 106.87 °W | Updated 1 hour ago

Scattered Clouds
Scattered Clouds
60 °F
Feels Like 60 °F
N
8
Wind Variable Wind from SSW

Today
High -- | Low -- °F
--% Chance of Precip.
Yesterday
High -- | Low -- °F
Precip. -- in
6:22 AM 7:53 PM
Waning Crescent, 17% visible
Pressure 29.87 in
Visibility 10.0 miles
Clouds Few 8000 ft
Scattered Clouds 12000 ft
Dew Point 48 °F
Humidity 64%
Rainfall 0.10 in
Snow Depth 177 in , 0 in
UV 0 out of 12
Pollen 9.60 out of 12
Air Quality Not available.
Flu Activity Not available.
METAR KASE 210153Z AUTO 21007KT 10SM FEW080 SCT120 16/09 A3019 RMK AO2 SLP115 T01560089

More Conditions Fewer Conditions

Pressure 29.87 in
Visibility 10.0 miles
Clouds Few 8000 ft
Scattered Clouds 12000 ft
Dew Point 48 °F
Humidity 64%
Rainfall 0.10 in
Snow Depth 177 in , 0 in
UV 0 out of 12
Pollen 9.60 out of 12
Air Quality Not available.
Flu Activity Not available.
METAR KASE 210153Z AUTO 21007KT 10SM FEW080 SCT120 16/09 A3019 RMK AO2 SLP115 T01560089

More Conditions Fewer Conditions

10-Day Weather Forecast

Almanac

Astronomy

Aug. 20, 2014 Rise Set
Actual Time 6:22 AM MDT 7:53 PM MDT
Civil Twilight 5:54 AM MDT 8:21 PM MDT
Nautical Twilight 5:20 AM MDT 8:55 PM MDT
Astronomical Twilight 4:44 AM MDT 9:31 PM MDT
Moon 2:05 AM MDT (8/20) 4:39 PM MDT (8/20)
Length of Visible Light 14h 27m
Length of Day
13h 30m
Tomorrow will be 2m 20s shorter.
Waning Crescent, 17% of the Moon is Illuminated
Today
Waning Crescent
Aug 25
New
Sep 2
First Quarter
Sep 8
Full
Sep 15
Last Quarter

Today's Extremes

State Highs State Lows

Community

WunderPhotos

Upload Photos

1,745,839 photos uploaded!

WunderBlogs® & News

By Dr. Jeff Masters
Director of Meteorology, Weather Underground
By Kari Strenfel
Meteorologist, Weather Underground
By Christopher C. Burt
Weather Historian, Weather Underground
August 20, 2014
August 20, 2014
August 20, 2014

Nearby

Snow Depth

Station Depth Elevation
Fremont Pass 177 in 11400 ft
Ivanhoe 0 in 10400 ft
Rough And Tumble 1 in 10360 ft
Mccoy Park 11 in 9480 ft
Independence Pass 190 in 10600 ft

Earthquake Activity

City Distance Mag. Time & Date
No recent earthquake activity has been reported nearby.
Minimum magnitude displayed is 2.5.

Coastal Water Temperatures

Place Temperature
No Stations Reporting

Nearby Weather Stations